createdAt,value
2022-09-18T00:02:24.125Z,11.60
2022-09-18T00:04:51.613Z,11.60
2022-09-18T00:07:19.275Z,11.60
2022-09-18T00:09:46.532Z,11.60
2022-09-18T00:12:13.743Z,11.50
2022-09-18T00:14:40.930Z,11.50
2022-09-18T00:17:09.252Z,11.40
2022-09-18T00:19:36.551Z,11.50
2022-09-18T00:22:03.718Z,11.50
2022-09-18T00:24:30.874Z,11.50
2022-09-18T00:27:04.215Z,11.50
2022-09-18T00:29:31.393Z,11.50
2022-09-18T00:31:58.511Z,11.50
2022-09-18T00:34:25.670Z,11.50
2022-09-18T00:36:52.795Z,11.50
2022-09-18T00:39:20.072Z,11.50
2022-09-18T00:41:47.412Z,11.50
2022-09-18T00:44:35.169Z,11.50
2022-09-18T00:47:11.337Z,11.60
2022-09-18T00:49:47.624Z,11.50
2022-09-18T00:52:17.142Z,11.50
2022-09-18T00:54:55.598Z,11.50
2022-09-18T00:57:28.456Z,11.50
2022-09-18T00:59:56.019Z,11.50
2022-09-18T01:02:23.207Z,11.50
2022-09-18T01:04:51.346Z,11.50
2022-09-18T01:07:31.927Z,11.50
2022-09-18T01:10:05.369Z,11.50
2022-09-18T01:12:53.830Z,11.50
2022-09-18T01:15:48.730Z,11.50
2022-09-18T01:18:38.331Z,11.60
2022-09-18T01:21:12.367Z,11.60
2022-09-18T01:24:17.000Z,11.60
2022-09-18T01:26:52.988Z,11.60
2022-09-18T01:29:38.050Z,11.60
2022-09-18T01:32:13.749Z,11.60
2022-09-18T01:34:47.115Z,11.60
2022-09-18T01:37:35.679Z,11.60
2022-09-18T01:40:05.777Z,11.60
2022-09-18T01:42:34.698Z,11.60
2022-09-18T01:45:07.969Z,11.60
2022-09-18T01:48:01.366Z,11.60
2022-09-18T01:50:32.890Z,11.60
2022-09-18T01:53:07.859Z,11.60
2022-09-18T01:55:38.557Z,11.60
2022-09-18T01:58:15.906Z,11.60
2022-09-18T02:00:48.639Z,11.60
2022-09-18T02:03:22.813Z,11.60
2022-09-18T02:06:08.910Z,11.60
2022-09-18T02:08:47.199Z,11.60
2022-09-18T02:11:16.495Z,11.60
2022-09-18T02:13:58.295Z,11.50
2022-09-18T02:16:32.398Z,11.50
2022-09-18T02:19:26.310Z,11.50
2022-09-18T02:21:56.132Z,11.50
2022-09-18T02:24:28.699Z,11.50
2022-09-18T02:26:56.983Z,11.40
2022-09-18T02:29:25.116Z,11.40
2022-09-18T02:31:52.490Z,11.40
2022-09-18T02:34:20.891Z,11.30
2022-09-18T02:37:02.384Z,11.30
2022-09-18T02:40:02.249Z,11.30
2022-09-18T02:43:10.353Z,11.30
2022-09-18T02:46:06.263Z,11.30
2022-09-18T02:48:45.280Z,11.30
2022-09-18T02:51:15.455Z,11.30
2022-09-18T02:53:56.309Z,11.30
2022-09-18T02:56:35.663Z,11.30
2022-09-18T02:59:16.811Z,11.30
2022-09-18T03:01:45.689Z,11.30
2022-09-18T03:04:15.804Z,11.30
2022-09-18T03:06:42.963Z,11.30
2022-09-18T03:09:10.169Z,11.40
2022-09-18T03:11:37.307Z,11.40
2022-09-18T03:14:04.701Z,11.40
2022-09-18T03:16:31.906Z,11.30
2022-09-18T03:18:59.108Z,11.40
2022-09-18T03:21:27.360Z,11.40
2022-09-18T03:23:54.900Z,11.40
2022-09-18T03:26:22.388Z,11.40
2022-09-18T03:28:49.661Z,11.40
2022-09-18T03:31:16.872Z,11.40
2022-09-18T03:33:44.106Z,11.40
2022-09-18T03:36:11.236Z,11.40
2022-09-18T03:38:38.369Z,11.40
2022-09-18T03:41:05.658Z,11.40
2022-09-18T03:43:33.198Z,11.40
2022-09-18T03:46:01.062Z,11.30
2022-09-18T03:48:28.648Z,11.30
2022-09-18T03:50:55.830Z,11.30
2022-09-18T03:53:23.063Z,11.30
2022-09-18T03:55:50.647Z,11.30
2022-09-18T03:58:17.999Z,11.30
2022-09-18T04:00:45.517Z,11.30
2022-09-18T04:03:12.790Z,11.40
2022-09-18T04:05:40.095Z,11.40
2022-09-18T04:08:07.376Z,11.40
2022-09-18T04:10:34.516Z,11.40
2022-09-18T04:13:01.742Z,11.40
2022-09-18T04:15:28.928Z,11.40
2022-09-18T04:17:56.099Z,11.40
2022-09-18T04:20:23.338Z,11.40
2022-09-18T04:22:50.835Z,11.30
2022-09-18T04:25:18.074Z,11.30
2022-09-18T04:27:45.240Z,11.30
2022-09-18T04:30:12.698Z,11.40
2022-09-18T04:32:40.135Z,11.40
2022-09-18T04:35:07.674Z,11.40
2022-09-18T04:37:34.962Z,11.40
2022-09-18T04:40:02.606Z,11.40
2022-09-18T04:42:29.851Z,11.40
2022-09-18T04:44:57.065Z,11.50
2022-09-18T04:47:24.619Z,11.50
2022-09-18T04:49:51.777Z,11.50
2022-09-18T04:52:18.996Z,11.50
2022-09-18T04:54:46.163Z,11.50
2022-09-18T04:57:13.358Z,11.50
2022-09-18T04:59:40.467Z,11.50
2022-09-18T05:02:07.657Z,11.50
2022-09-18T05:04:34.967Z,11.40
2022-09-18T05:07:02.156Z,11.40
2022-09-18T05:09:29.485Z,11.40
2022-09-18T05:11:56.743Z,11.30
2022-09-18T05:14:24.331Z,11.30
2022-09-18T05:16:51.484Z,11.30
2022-09-18T05:19:18.700Z,11.30
2022-09-18T05:21:51.701Z,11.30
2022-09-18T05:24:18.955Z,11.30
2022-09-18T05:26:46.467Z,11.30
2022-09-18T05:29:13.823Z,11.40
2022-09-18T05:31:41.382Z,11.40
2022-09-18T05:34:08.643Z,11.40
2022-09-18T05:36:35.795Z,11.40
2022-09-18T05:39:03.256Z,11.50
2022-09-18T05:41:30.499Z,11.50
2022-09-18T05:43:57.992Z,11.50
2022-09-18T05:46:25.213Z,11.50
2022-09-18T05:48:52.484Z,11.50
2022-09-18T05:51:19.964Z,11.50
2022-09-18T05:53:47.308Z,11.50
2022-09-18T05:56:15.877Z,11.50
2022-09-18T05:58:43.218Z,11.50
2022-09-18T06:01:10.649Z,11.50
2022-09-18T06:03:37.872Z,11.60
2022-09-18T06:06:05.603Z,11.60
2022-09-18T06:08:32.855Z,11.70
2022-09-18T06:11:01.104Z,11.70
2022-09-18T06:13:28.319Z,11.70
2022-09-18T06:15:55.564Z,11.80
2022-09-18T06:18:22.892Z,11.80
2022-09-18T06:20:57.953Z,11.80
2022-09-18T06:23:27.633Z,11.80
2022-09-18T06:26:03.437Z,11.70
2022-09-18T06:28:31.347Z,11.80
2022-09-18T06:30:59.680Z,11.80
2022-09-18T06:33:27.938Z,11.80
2022-09-18T06:35:55.504Z,11.80
2022-09-18T06:38:22.708Z,11.80
2022-09-18T06:40:53.963Z,11.90
2022-09-18T06:43:22.363Z,11.90
2022-09-18T06:45:54.522Z,11.90
2022-09-18T06:48:22.994Z,11.90
2022-09-18T06:51:09.029Z,12.00
2022-09-18T06:53:36.299Z,12.00
2022-09-18T06:56:03.605Z,12.10
2022-09-18T06:58:30.764Z,12.20
2022-09-18T07:01:00.125Z,12.20
2022-09-18T07:03:27.517Z,12.30
2022-09-18T07:05:58.148Z,12.30
2022-09-18T07:08:25.462Z,12.40
2022-09-18T07:10:52.839Z,12.50
2022-09-18T07:13:20.100Z,12.50
2022-09-18T07:15:47.357Z,12.50
2022-09-18T07:18:14.668Z,12.50
2022-09-18T07:20:41.830Z,12.50
2022-09-18T07:23:09.020Z,12.60
2022-09-18T07:25:36.480Z,12.70
2022-09-18T07:28:08.339Z,12.90
2022-09-18T07:30:37.058Z,13.10
2022-09-18T07:33:05.992Z,13.30
2022-09-18T07:35:33.910Z,13.40
2022-09-18T07:38:02.367Z,13.50
2022-09-18T07:40:30.029Z,13.60
2022-09-18T07:43:07.761Z,13.80
2022-09-18T07:45:35.930Z,13.90
2022-09-18T07:48:05.475Z,14.10
2022-09-18T07:50:33.670Z,14.10
2022-09-18T07:53:02.181Z,14.00
2022-09-18T07:55:29.455Z,14.00
2022-09-18T07:58:01.492Z,13.90
2022-09-18T08:00:31.421Z,13.90
2022-09-18T08:03:07.640Z,14.10
2022-09-18T08:05:35.939Z,14.20
2022-09-18T08:08:08.144Z,14.40
2022-09-18T08:10:36.544Z,14.40
2022-09-18T08:13:04.327Z,14.20
2022-09-18T08:15:32.254Z,14.10
2022-09-18T08:17:59.851Z,14.00
2022-09-18T08:20:27.187Z,13.90
2022-09-18T08:22:54.509Z,14.00
2022-09-18T08:25:21.917Z,13.90
2022-09-18T08:27:50.591Z,13.80
2022-09-18T08:30:17.873Z,13.70
2022-09-18T08:32:45.307Z,13.80
2022-09-18T08:35:12.693Z,13.90
2022-09-18T08:37:50.804Z,13.90
2022-09-18T08:40:20.811Z,13.90
2022-09-18T08:43:03.166Z,14.00
2022-09-18T08:45:39.325Z,14.20
2022-09-18T08:48:14.532Z,14.30
2022-09-18T08:50:44.067Z,14.30
2022-09-18T08:53:23.600Z,14.20
2022-09-18T08:55:52.608Z,14.20
2022-09-18T08:58:43.485Z,14.30
2022-09-18T09:01:15.832Z,14.40
2022-09-18T09:04:08.741Z,14.50
2022-09-18T09:06:41.747Z,14.40
2022-09-18T09:09:21.589Z,14.30
2022-09-18T09:12:13.868Z,14.30
2022-09-18T09:14:59.782Z,14.60
2022-09-18T09:17:47.124Z,14.70
2022-09-18T09:20:20.435Z,14.70
2022-09-18T09:23:02.057Z,14.70
2022-09-18T09:25:46.153Z,14.60
2022-09-18T09:28:36.270Z,14.80
2022-09-18T09:31:07.029Z,14.80
2022-09-18T09:33:47.471Z,14.90
2022-09-18T09:36:18.110Z,15.00
2022-09-18T09:38:48.793Z,15.30
2022-09-18T09:41:19.753Z,15.40
2022-09-18T09:44:19.188Z,15.60
2022-09-18T09:46:58.429Z,15.70
2022-09-18T09:49:29.104Z,15.80
2022-09-18T09:52:22.824Z,15.90
2022-09-18T09:54:59.449Z,16.10
2022-09-18T09:57:48.811Z,16.20
2022-09-18T10:00:17.101Z,16.20
2022-09-18T10:03:01.085Z,16.40
2022-09-18T10:05:51.629Z,16.20
2022-09-18T10:08:41.778Z,16.20
2022-09-18T10:11:10.349Z,16.20
2022-09-18T10:14:01.198Z,16.10
2022-09-18T10:16:36.596Z,16.30
2022-09-18T10:19:04.698Z,16.40
2022-09-18T10:21:36.091Z,16.50
2022-09-18T10:24:18.129Z,16.70
2022-09-18T10:26:50.815Z,16.70
2022-09-18T10:29:18.824Z,16.60
2022-09-18T10:31:50.704Z,16.20
2022-09-18T10:34:45.209Z,16.00
2022-09-18T10:37:16.532Z,15.60
2022-09-18T10:39:55.208Z,15.00
2022-09-18T10:42:25.850Z,14.80
2022-09-18T10:45:01.724Z,14.70
2022-09-18T10:47:35.771Z,14.80
2022-09-18T10:50:05.994Z,15.20
2022-09-18T10:52:48.003Z,15.70
2022-09-18T10:55:16.766Z,16.00
2022-09-18T10:57:49.888Z,16.10
2022-09-18T11:00:19.942Z,16.20
2022-09-18T11:03:06.586Z,16.20
2022-09-18T11:05:37.191Z,16.40
2022-09-18T11:08:13.269Z,16.60
2022-09-18T11:10:46.463Z,16.60
2022-09-18T11:13:21.710Z,16.90
2022-09-18T11:15:54.717Z,16.90
2022-09-18T11:18:32.797Z,16.60
2022-09-18T11:21:04.200Z,16.60
2022-09-18T11:23:34.486Z,16.50
2022-09-18T11:26:27.344Z,16.40
2022-09-18T11:29:23.046Z,16.10
2022-09-18T11:31:55.373Z,16.00
2022-09-18T11:34:26.204Z,15.60
2022-09-18T11:36:57.310Z,15.40
2022-09-18T11:39:33.697Z,15.10
2022-09-18T11:42:01.111Z,15.00
2022-09-18T11:44:32.866Z,14.90
2022-09-18T11:47:15.153Z,14.60
2022-09-18T11:49:45.604Z,14.50
2022-09-18T11:52:21.720Z,13.80
2022-09-18T11:54:54.265Z,12.90
2022-09-18T11:57:45.021Z,12.30
2022-09-18T12:00:19.055Z,12.20
2022-09-18T12:02:46.322Z,12.10
2022-09-18T12:05:25.683Z,12.20
2022-09-18T12:08:15.910Z,12.00
2022-09-18T12:10:51.721Z,11.80
2022-09-18T12:13:31.411Z,11.90
2022-09-18T12:16:32.445Z,11.80
2022-09-18T12:19:32.845Z,12.00
2022-09-18T12:22:21.597Z,12.00
2022-09-18T12:24:49.566Z,12.20
2022-09-18T12:27:27.615Z,12.00
2022-09-18T12:30:04.183Z,12.10
2022-09-18T12:32:38.770Z,12.00
2022-09-18T12:35:28.742Z,12.00
2022-09-18T12:38:20.777Z,12.00
2022-09-18T12:40:55.914Z,12.10
2022-09-18T12:43:29.224Z,12.10
2022-09-18T12:46:11.680Z,12.20
2022-09-18T12:48:41.728Z,12.30
2022-09-18T12:51:38.874Z,12.40
2022-09-18T12:54:46.974Z,12.50
2022-09-18T12:57:50.180Z,12.50
2022-09-18T13:00:17.436Z,12.60
2022-09-18T13:03:17.109Z,12.60
2022-09-18T13:05:54.822Z,12.50
2022-09-18T13:08:28.061Z,12.60
2022-09-18T13:11:11.957Z,12.60
2022-09-18T13:14:01.934Z,12.70
2022-09-18T13:17:07.450Z,12.70
2022-09-18T13:19:40.818Z,12.70
2022-09-18T13:22:14.298Z,12.80
2022-09-18T13:24:43.785Z,12.80
2022-09-18T13:27:14.730Z,12.90
2022-09-18T13:29:58.666Z,12.90
2022-09-18T13:32:46.214Z,13.00
2022-09-18T13:35:13.487Z,13.10
2022-09-18T13:37:42.545Z,13.00
2022-09-18T13:40:26.843Z,13.10
2022-09-18T13:42:54.230Z,13.00
2022-09-18T13:45:28.196Z,12.90
2022-09-18T13:48:01.355Z,12.90
2022-09-18T13:50:29.328Z,12.80
2022-09-18T13:53:01.623Z,12.80
2022-09-18T13:55:36.158Z,12.70
2022-09-18T13:58:31.551Z,12.60
2022-09-18T14:01:02.583Z,12.70
2022-09-18T14:03:34.294Z,12.60
2022-09-18T14:06:36.508Z,12.50
2022-09-18T14:09:26.393Z,12.50
2022-09-18T14:11:54.578Z,12.50
2022-09-18T14:14:24.395Z,12.50
2022-09-18T14:16:51.946Z,12.50
2022-09-18T14:19:33.420Z,12.40
2022-09-18T14:22:01.538Z,12.30
2022-09-18T14:24:40.633Z,12.30
2022-09-18T14:27:35.555Z,12.30
2022-09-18T14:30:15.980Z,12.30
2022-09-18T14:33:12.480Z,12.30
2022-09-18T14:35:42.728Z,12.40
2022-09-18T14:38:36.979Z,12.40
2022-09-18T14:41:23.136Z,12.30
2022-09-18T14:43:57.728Z,12.30
2022-09-18T14:46:26.399Z,12.40
2022-09-18T14:48:55.181Z,12.30
2022-09-18T14:51:34.996Z,12.40
2022-09-18T14:57:22.720Z,12.40
2022-09-18T14:59:56.407Z,12.50
2022-09-18T15:02:41.841Z,12.40
2022-09-18T15:05:12.588Z,12.40
2022-09-18T15:07:46.611Z,12.40
2022-09-18T15:10:15.739Z,12.40
2022-09-18T15:12:43.471Z,12.30
2022-09-18T15:15:29.476Z,12.40
2022-09-18T15:17:56.850Z,12.10
2022-09-18T15:20:25.726Z,12.20
2022-09-18T15:22:53.798Z,12.20
2022-09-18T15:25:25.962Z,12.10
2022-09-18T15:27:54.571Z,12.00
2022-09-18T15:30:24.393Z,12.00
2022-09-18T15:33:05.533Z,11.90
2022-09-18T15:35:36.448Z,11.90
2022-09-18T15:38:07.036Z,11.80
2022-09-18T15:40:38.889Z,11.60
2022-09-18T15:43:27.287Z,11.50
2022-09-18T15:46:06.685Z,11.30
2022-09-18T15:48:45.096Z,11.40
2022-09-18T15:51:24.357Z,11.20
2022-09-18T15:54:06.139Z,11.20
2022-09-18T15:56:34.376Z,11.10
2022-09-18T15:59:04.997Z,11.00
2022-09-18T16:01:35.830Z,11.10
2022-09-18T16:04:16.470Z,11.00
2022-09-18T16:07:04.167Z,11.00
2022-09-18T16:09:41.768Z,11.00
2022-09-18T16:12:31.910Z,11.10
2022-09-18T16:15:18.815Z,11.10
2022-09-18T16:17:45.996Z,10.90
2022-09-18T16:20:22.442Z,10.90
2022-09-18T16:22:51.690Z,11.00
2022-09-18T16:25:26.980Z,10.90
2022-09-18T16:27:56.277Z,11.00
2022-09-18T16:30:27.751Z,10.90
2022-09-18T16:33:12.946Z,10.90
2022-09-18T16:35:40.155Z,11.00
2022-09-18T16:38:09.670Z,11.00
2022-09-18T16:40:37.202Z,10.90
2022-09-18T16:43:04.457Z,10.90
2022-09-18T16:45:31.720Z,11.10
2022-09-18T16:48:00.756Z,11.00
2022-09-18T16:50:28.151Z,11.10
2022-09-18T16:52:59.575Z,11.10
2022-09-18T16:55:30.187Z,11.00
2022-09-18T16:57:57.428Z,11.00
2022-09-18T17:00:25.086Z,11.10
2022-09-18T17:02:53.807Z,11.10
2022-09-18T17:05:21.108Z,11.00
2022-09-18T17:07:48.311Z,10.80
2022-09-18T17:10:15.735Z,10.90
2022-09-18T17:12:42.933Z,10.70
2022-09-18T17:15:10.466Z,10.80
2022-09-18T17:17:37.744Z,10.80
2022-09-18T17:20:05.835Z,10.50
2022-09-18T17:22:33.047Z,10.00
2022-09-18T17:25:00.521Z,9.90
2022-09-18T17:27:27.707Z,9.80
2022-09-18T17:29:54.872Z,9.70
2022-09-18T17:32:22.098Z,9.50
2022-09-18T17:34:49.349Z,9.50
2022-09-18T17:37:16.708Z,9.30
2022-09-18T17:39:45.223Z,9.30
2022-09-18T17:42:12.448Z,9.20
2022-09-18T17:44:39.890Z,9.30
2022-09-18T17:47:07.194Z,9.30
2022-09-18T17:49:34.375Z,9.30
2022-09-18T17:52:01.833Z,9.30
2022-09-18T17:54:29.147Z,9.40
2022-09-18T17:56:56.310Z,9.40
2022-09-18T17:59:23.607Z,9.40
2022-09-18T18:01:50.879Z,9.40
2022-09-18T18:04:18.160Z,9.50
2022-09-18T18:06:48.760Z,9.50
2022-09-18T18:09:15.963Z,9.50
2022-09-18T18:11:43.280Z,9.50
2022-09-18T18:14:10.495Z,9.50
2022-09-18T18:16:37.807Z,9.40
2022-09-18T18:19:10.120Z,9.50
2022-09-18T18:21:38.296Z,9.40
2022-09-18T18:24:08.576Z,9.50
2022-09-18T18:26:37.084Z,9.50
2022-09-18T18:29:05.135Z,9.40
2022-09-18T18:31:32.681Z,9.40
2022-09-18T18:33:59.921Z,9.40
2022-09-18T18:36:29.601Z,9.50
2022-09-18T18:38:59.494Z,9.40
2022-09-18T18:41:29.427Z,9.50
2022-09-18T18:44:01.123Z,9.50
2022-09-18T18:46:30.507Z,9.50
2022-09-18T18:48:59.400Z,9.50
2022-09-18T18:51:26.770Z,9.40
2022-09-18T18:53:57.485Z,9.40
2022-09-18T18:56:24.818Z,9.30
2022-09-18T18:58:56.999Z,9.30
2022-09-18T19:01:25.119Z,9.30
2022-09-18T19:03:57.654Z,9.20
2022-09-18T19:06:25.095Z,9.10
2022-09-18T19:08:57.832Z,8.90
2022-09-18T19:11:25.515Z,8.80
2022-09-18T19:13:54.768Z,8.80
2022-09-18T19:16:24.153Z,8.80
2022-09-18T19:18:56.635Z,8.70
2022-09-18T19:21:24.573Z,8.70
2022-09-18T19:23:53.824Z,8.60
2022-09-18T19:26:22.209Z,8.70
2022-09-18T19:28:54.924Z,8.60
2022-09-18T19:31:23.395Z,8.70
2022-09-18T19:33:51.255Z,8.60
2022-09-18T19:36:21.040Z,8.60
2022-09-18T19:38:59.646Z,8.60
2022-09-18T19:41:29.853Z,8.60
2022-09-18T19:43:57.720Z,8.60
2022-09-18T19:46:29.344Z,8.60
2022-09-18T19:48:57.799Z,8.70
2022-09-18T19:51:25.386Z,8.60
2022-09-18T19:53:52.925Z,8.70
2022-09-18T19:56:41.772Z,8.60
2022-09-18T19:59:07.929Z,8.60
2022-09-18T20:01:35.250Z,8.80
2022-09-18T20:04:02.928Z,8.80
2022-09-18T20:06:31.444Z,8.80
2022-09-18T20:08:59.554Z,8.80
2022-09-18T20:11:26.825Z,8.80
2022-09-18T20:14:02.112Z,8.80
2022-09-18T20:16:29.745Z,8.80
2022-09-18T20:18:56.999Z,8.80
2022-09-18T20:21:24.218Z,8.70
2022-09-18T20:23:58.719Z,8.70
2022-09-18T20:26:26.399Z,8.70
2022-09-18T20:28:54.662Z,8.60
2022-09-18T20:31:22.125Z,8.70
2022-09-18T20:33:56.506Z,8.60
2022-09-18T20:36:24.721Z,8.60
2022-09-18T20:38:54.079Z,8.50
2022-09-18T20:41:21.479Z,8.70
2022-09-18T20:43:52.667Z,8.50
2022-09-18T20:46:20.026Z,8.60
2022-09-18T20:48:49.488Z,8.50
2022-09-18T20:51:16.642Z,8.50
2022-09-18T20:53:44.726Z,8.50
2022-09-18T20:56:15.945Z,8.50
2022-09-18T20:58:43.162Z,8.40
2022-09-18T21:01:12.775Z,8.50
2022-09-18T21:03:42.713Z,8.50
2022-09-18T21:06:21.789Z,8.40
2022-09-18T21:08:52.127Z,8.50
2022-09-18T21:11:25.990Z,8.40
2022-09-18T21:13:55.752Z,8.50
2022-09-18T21:16:24.722Z,8.50
2022-09-18T21:18:53.686Z,8.50
2022-09-18T21:21:20.848Z,8.50
2022-09-18T21:23:48.126Z,8.50
2022-09-18T21:26:17.567Z,8.60
2022-09-18T21:28:44.911Z,8.40
2022-09-18T21:31:12.158Z,8.40
2022-09-18T21:33:41.033Z,8.40
2022-09-18T21:36:08.604Z,8.40
2022-09-18T21:38:36.036Z,8.40
2022-09-18T21:41:05.109Z,8.40
2022-09-18T21:43:32.708Z,8.40
2022-09-18T21:46:03.861Z,8.40
2022-09-18T21:48:32.347Z,8.30
2022-09-18T21:51:10.976Z,8.30
2022-09-18T21:53:39.848Z,8.40
2022-09-18T21:56:09.742Z,8.40
2022-09-18T21:58:40.502Z,8.40
2022-09-18T22:01:19.139Z,8.30
2022-09-18T22:03:50.296Z,8.30
2022-09-18T22:06:21.687Z,8.30
2022-09-18T22:08:50.196Z,8.30
2022-09-18T22:11:18.839Z,8.30
2022-09-18T22:13:46.927Z,8.20
2022-09-18T22:16:14.400Z,8.30
2022-09-18T22:18:42.113Z,8.20
2022-09-18T22:21:21.567Z,8.20
2022-09-18T22:23:54.583Z,8.30
2022-09-18T22:26:23.658Z,8.30
2022-09-18T22:28:56.601Z,8.30
2022-09-18T22:31:24.772Z,8.30
2022-09-18T22:33:58.159Z,8.30
2022-09-18T22:36:26.037Z,8.20
2022-09-18T22:38:54.155Z,8.30
2022-09-18T22:41:21.582Z,8.20
2022-09-18T22:43:53.207Z,8.20
2022-09-18T22:46:20.439Z,8.20
2022-09-18T22:48:47.753Z,8.20
2022-09-18T22:51:17.786Z,8.20
2022-09-18T22:54:15.731Z,8.20
2022-09-18T22:56:47.863Z,8.20
2022-09-18T22:59:17.589Z,8.20
2022-09-18T23:01:51.955Z,8.20
2022-09-18T23:04:21.033Z,8.20
2022-09-18T23:06:49.017Z,8.30
2022-09-18T23:09:18.025Z,8.30
2022-09-18T23:11:47.227Z,8.20
2022-09-18T23:14:19.866Z,8.30
2022-09-18T23:16:48.369Z,8.40
2022-09-18T23:19:21.578Z,8.30
2022-09-18T23:21:49.832Z,8.20
2022-09-18T23:24:17.029Z,8.40
2022-09-18T23:26:46.180Z,8.40
2022-09-18T23:29:19.365Z,8.40
2022-09-18T23:31:48.388Z,8.40
2022-09-18T23:34:17.692Z,8.60
2022-09-18T23:36:47.200Z,8.60
2022-09-18T23:39:18.587Z,8.60
2022-09-18T23:41:46.412Z,8.80
2022-09-18T23:44:16.358Z,8.80
2022-09-18T23:46:44.476Z,8.80
2022-09-18T23:49:13.035Z,8.80
2022-09-18T23:51:45.484Z,8.90
2022-09-18T23:54:17.325Z,8.80
2022-09-18T23:56:45.152Z,8.90
2022-09-18T23:59:13.878Z,8.90
